Whtdeer, Pennsylvania
Current Conditions -  °F | °C
As of 8:54 AM on Thursday 23 Oct 2014 (Local Time) from KIPT Reporting Station
Overcast Overcast  
Wind Chill: 52°   Ceiling: 2500
Heat Index: 52°   Visibility: 10mi
Dew Point: 41°   Wind: 12mph
Humidity: 66%   Direction: 310°NW
Pressure: 29.92"   Gusts: 21mph
Location:  41.0758°N, 76.8752°W
Report Text: KIPT 231254Z 31010G18KT 10SM OVC025 11/05 A2992 RMK AO2 SLP134 T01110050
Loading
Personal Weather Stations






























Interactive Weather Map
Tropical Storm Tracking
New forecast layout! Learn more

10-Day Weather Forecast

Advertisements
Track Severe Weather on mobile